Time;durP1;ratioP1;P1;durP2;ratioP2;P2;SDS_P1;SDS_P2;PMS_P1;PMS_P2;Temp;Humidity;BMP_temperature;BMP_pressure;BME280_temperature;BME280_humidity;BME280_pressure;Samples;Min_cycle;Max_cycle;Signal;HPM_P1;HPM_P2
2021/03/11 00:00:08;;;;;;;1.75;1.65;;;19.00;21.30;;;;;;5113942;28;20196;-60
2021/03/11 00:02:34;;;;;;;1.80;1.70;;;19.00;21.30;;;;;;5114190;28;20164;-60
2021/03/11 00:05:00;;;;;;;1.60;1.50;;;19.00;21.30;;;;;;5114369;28;20255;-59
2021/03/11 00:07:31;;;;;;;2.10;1.95;;;19.00;21.30;;;;;;5113993;28;20165;-57
2021/03/11 00:09:57;;;;;;;1.77;1.63;;;19.00;21.30;;;;;;5113456;28;20600;-57
2021/03/11 00:12:22;;;;;;;1.80;1.70;;;19.00;21.30;;;;;;5114108;28;20635;-57
2021/03/11 00:14:48;;;;;;;2.23;1.73;;;19.00;21.30;;;;;;5113927;28;20194;-57
2021/03/11 00:17:17;;;;;;;1.70;1.60;;;19.00;21.30;;;;;;5114046;28;20564;-57
2021/03/11 00:19:44;;;;;;;1.75;1.65;;;19.00;21.20;;;;;;5113630;28;20202;-57
2021/03/11 00:22:10;;;;;;;2.00;1.80;;;19.00;21.30;;;;;;5113846;28;20172;-57
2021/03/11 00:24:38;;;;;;;2.25;1.60;;;19.00;21.20;;;;;;5113347;28;20160;-58
2021/03/11 00:27:05;;;;;;;1.65;1.55;;;18.90;21.70;;;;;;5113744;28;20195;-58
2021/03/11 00:29:30;;;;;;;1.88;1.75;;;19.00;21.30;;;;;;5113717;28;20600;-58
2021/03/11 00:31:56;;;;;;;2.10;1.90;;;19.00;21.20;;;;;;5113760;28;20624;-57
2021/03/11 00:34:22;;;;;;;3.10;1.57;;;19.00;21.30;;;;;;5113465;28;20377;-58
2021/03/11 00:36:48;;;;;;;1.90;1.80;;;19.00;21.30;;;;;;5113693;28;20162;-57
2021/03/11 00:39:15;;;;;;;2.40;1.70;;;19.00;21.30;;;;;;5113259;28;20779;-57
2021/03/11 00:41:41;;;;;;;2.13;2.03;;;19.00;21.20;;;;;;5113623;28;20365;-58
2021/03/11 00:44:09;;;;;;;1.80;1.70;;;19.00;21.20;;;;;;5113701;28;20153;-57
2021/03/11 00:46:38;;;;;;;1.92;1.80;;;19.00;21.20;;;;;;5113663;28;20215;-58
2021/03/11 00:49:03;;;;;;;1.77;1.67;;;19.00;21.20;;;;;;5113538;28;20161;-57
2021/03/11 00:51:29;;;;;;;1.90;1.70;;;19.00;21.20;;;;;;5113644;28;20161;-58
2021/03/11 00:53:55;;;;;;;1.40;1.30;;;19.00;21.20;;;;;;5113101;28;20168;-58
2021/03/11 00:56:21;;;;;;;1.83;1.67;;;19.00;21.20;;;;;;5115708;28;20161;-57
2021/03/11 00:58:49;;;;;;;2.07;1.87;;;19.00;21.20;;;;;;5117182;28;20228;-57
2021/03/11 01:01:15;;;;;;;1.98;1.88;;;19.00;21.20;;;;;;5099481;28;20208;-57
2021/03/11 01:03:41;;;;;;;1.77;1.60;;;19.00;21.20;;;;;;5117299;28;20185;-57
2021/03/11 01:06:07;;;;;;;1.63;1.53;;;19.00;21.20;;;;;;5098909;28;20173;-57
2021/03/11 01:08:33;;;;;;;1.50;1.40;;;19.00;21.20;;;;;;5116663;28;20161;-57
2021/03/11 01:10:59;;;;;;;2.37;1.80;;;19.00;21.20;;;;;;5117354;28;20670;-58
2021/03/11 01:13:25;;;;;;;1.40;1.30;;;19.00;21.20;;;;;;5116917;28;20546;-57
2021/03/11 01:15:51;;;;;;;1.63;1.52;;;19.00;21.20;;;;;;5117302;28;20657;-58
2021/03/11 01:18:16;;;;;;;2.10;1.70;;;19.00;21.20;;;;;;5116648;28;20304;-58
2021/03/11 01:20:42;;;;;;;1.70;1.53;;;19.00;21.20;;;;;;5117121;28;20245;-58
2021/03/11 01:23:10;;;;;;;1.83;1.73;;;19.00;21.20;;;;;;5116371;28;20620;-58
2021/03/11 01:25:36;;;;;;;1.60;1.42;;;19.00;21.20;;;;;;5116834;28;20410;-57
2021/03/11 01:28:02;;;;;;;2.23;1.83;;;18.90;21.10;;;;;;5116884;28;20153;-57
2021/03/11 01:30:27;;;;;;;1.80;1.70;;;19.00;21.20;;;;;;5116762;28;20242;-57
2021/03/11 01:32:53;;;;;;;1.50;1.40;;;19.00;21.20;;;;;;5116874;28;20161;-57
2021/03/11 01:35:19;;;;;;;1.77;1.53;;;19.00;21.70;;;;;;5116413;28;20164;-58
2021/03/11 01:37:44;;;;;;;1.90;1.80;;;19.00;21.20;;;;;;5116877;28;20157;-58
2021/03/11 01:40:10;;;;;;;2.13;1.80;;;19.00;21.20;;;;;;5116186;28;20192;-57
2021/03/11 01:42:36;;;;;;;2.08;1.63;;;19.00;21.20;;;;;;5116478;28;20164;-57
2021/03/11 01:45:04;;;;;;;1.50;1.40;;;19.00;21.20;;;;;;5116634;28;20157;-58
2021/03/11 01:47:30;;;;;;;1.40;1.30;;;19.00;21.20;;;;;;5116413;28;20382;-58
2021/03/11 01:49:56;;;;;;;1.57;1.47;;;19.00;21.20;;;;;;5116310;28;20639;-58
2021/03/11 01:52:22;;;;;;;1.52;1.38;;;19.00;21.20;;;;;;5116494;28;20161;-57
2021/03/11 01:54:48;;;;;;;2.27;1.90;;;19.00;21.10;;;;;;5116020;28;20172;-57
2021/03/11 01:57:13;;;;;;;1.60;1.50;;;19.00;21.20;;;;;;5116182;28;20153;-57
2021/03/11 01:59:39;;;;;;;1.93;1.70;;;19.00;21.10;;;;;;5116214;28;20208;-57
2021/03/11 02:02:05;;;;;;;1.60;1.47;;;19.00;21.10;;;;;;5116188;28;20157;-57
2021/03/11 02:04:31;;;;;;;1.33;1.23;;;19.00;21.10;;;;;;5097684;28;20177;-57
2021/03/11 02:06:58;;;;;;;1.87;1.77;;;19.00;21.10;;;;;;5114909;28;20244;-58
2021/03/11 02:09:24;;;;;;;1.67;1.58;;;19.00;21.10;;;;;;5115502;28;20378;-57
2021/03/11 02:12:23;;;;;;;1.47;1.37;;;19.00;21.70;;;;;;5116119;28;20172;-58
2021/03/11 02:14:52;;;;;;;1.42;1.33;;;19.00;21.10;;;;;;5115769;28;20184;-58
2021/03/11 02:17:21;;;;;;;1.48;1.38;;;19.00;21.10;;;;;;5115759;28;20269;-57
2021/03/11 02:20:05;;;;;;;1.90;1.80;;;19.00;21.10;;;;;;5115588;28;20276;-58
2021/03/11 02:23:22;;;;;;;1.55;1.45;;;19.00;21.10;;;;;;5115874;28;20149;-57
2021/03/11 02:25:57;;;;;;;1.95;1.70;;;19.00;21.10;;;;;;5070608;28;20185;-58
2021/03/11 02:28:30;;;;;;;1.55;1.45;;;19.00;21.10;;;;;;5115596;28;20164;-58
2021/03/11 02:30:59;;;;;;;1.80;1.45;;;18.90;21.00;;;;;;5115914;28;20252;-58
2021/03/11 02:33:26;;;;;;;1.52;1.42;;;19.00;21.10;;;;;;5115398;28;20157;-57
2021/03/11 02:35:57;;;;;;;1.75;1.63;;;19.00;21.10;;;;;;5115757;28;20164;-57
2021/03/11 02:38:24;;;;;;;1.50;1.40;;;19.00;21.10;;;;;;5114928;28;20224;-58
2021/03/11 02:40:50;;;;;;;1.85;1.75;;;19.00;21.10;;;;;;5115470;28;20244;-57
2021/03/11 02:43:17;;;;;;;1.70;1.60;;;19.00;21.10;;;;;;5115392;28;20157;-58
2021/03/11 02:45:43;;;;;;;1.67;1.58;;;18.90;21.00;;;;;;5097211;28;20524;-58
2021/03/11 02:48:11;;;;;;;2.00;1.73;;;19.00;21.10;;;;;;5115459;28;20202;-58
2021/03/11 02:50:39;;;;;;;1.50;1.40;;;19.00;21.10;;;;;;5115447;28;20153;-58
2021/03/11 02:53:08;;;;;;;1.60;1.42;;;19.00;21.60;;;;;;5114698;28;20156;-58
2021/03/11 02:55:35;;;;;;;1.42;1.33;;;19.00;21.10;;;;;;5115189;28;20199;-57
2021/03/11 02:58:02;;;;;;;1.50;1.40;;;19.00;21.10;;;;;;5114979;28;20166;-57
2021/03/11 03:00:28;;;;;;;1.58;1.48;;;19.00;21.30;;;;;;5114998;28;20264;-57
2021/03/11 03:02:54;;;;;;;3.25;1.80;;;19.00;21.10;;;;;;5115019;28;20145;-57
2021/03/11 03:05:29;;;;;;;1.98;1.50;;;19.00;21.10;;;;;;5096682;28;20161;-58
2021/03/11 03:07:57;;;;;;;1.70;1.60;;;19.00;21.10;;;;;;5115074;28;20148;-58
2021/03/11 03:10:26;;;;;;;1.92;1.75;;;19.00;21.00;;;;;;5114619;28;20604;-57
2021/03/11 03:12:54;;;;;;;1.75;1.65;;;19.00;21.00;;;;;;5115106;28;20244;-57
2021/03/11 03:15:21;;;;;;;2.00;1.80;;;19.00;21.00;;;;;;5115013;28;20153;-56
2021/03/11 03:17:48;;;;;;;1.73;1.63;;;19.00;21.00;;;;;;5114439;28;20237;-57
2021/03/11 03:20:19;;;;;;;2.15;1.20;;;19.00;21.60;;;;;;5114227;28;20199;-57
2021/03/11 03:22:46;;;;;;;1.30;1.20;;;19.00;21.00;;;;;;5114785;28;20149;-58
2021/03/11 03:25:13;;;;;;;1.30;1.20;;;17.80;20.20;;;;;;5114278;28;20149;-58
2021/03/11 03:27:40;;;;;;;1.60;1.50;;;19.00;21.00;;;;;;5114501;28;20169;-57
2021/03/11 03:30:11;;;;;;;1.40;1.30;;;19.00;21.60;;;;;;5114348;28;20189;-57
2021/03/11 03:32:37;;;;;;;1.55;1.27;;;19.00;21.00;;;;;;5114544;28;20157;-57
2021/03/11 03:35:08;;;;;;;1.80;1.70;;;19.00;21.60;;;;;;5114277;28;20206;-58
2021/03/11 03:37:35;;;;;;;1.70;1.60;;;19.00;21.00;;;;;;5114022;28;20517;-57
2021/03/11 03:40:07;;;;;;;1.65;1.55;;;19.00;21.00;;;;;;5114077;28;20181;-57
2021/03/11 03:42:38;;;;;;;1.77;1.67;;;19.00;21.00;;;;;;5114350;28;20168;-57
2021/03/11 03:45:06;;;;;;;2.08;1.50;;;19.00;21.00;;;;;;5114301;28;20141;-56
2021/03/11 03:47:32;;;;;;;1.50;1.40;;;19.00;21.00;;;;;;5114149;28;20153;-57
2021/03/11 03:49:58;;;;;;;1.40;1.30;;;19.00;21.00;;;;;;5114280;28;20160;-58
2021/03/11 03:52:26;;;;;;;1.50;1.40;;;19.00;21.00;;;;;;5114159;28;20156;-57
2021/03/11 03:54:53;;;;;;;1.48;1.30;;;19.00;21.10;;;;;;5113710;28;20160;-57
2021/03/11 03:57:21;;;;;;;1.55;1.45;;;18.90;21.00;;;;;;5114165;28;20249;-57
2021/03/11 03:59:50;;;;;;;1.50;1.38;;;19.00;21.00;;;;;;5114065;28;20677;-58
2021/03/11 04:02:17;;;;;;;1.60;1.50;;;19.00;21.00;;;;;;5129973;27;20683;-57
2021/03/11 04:04:49;;;;;;;1.70;1.60;;;19.00;21.00;;;;;;5113928;28;20544;-58
2021/03/11 04:07:20;;;;;;;1.60;1.50;;;19.00;21.00;;;;;;5113930;28;20149;-58
2021/03/11 04:09:47;;;;;;;1.20;1.10;;;19.00;21.00;;;;;;5113564;28;20616;-58
2021/03/11 04:12:16;;;;;;;1.70;1.60;;;19.00;21.00;;;;;;5113606;28;20164;-58
2021/03/11 04:14:43;;;;;;;1.85;1.35;;;19.00;21.00;;;;;;5114212;28;20184;-56
2021/03/11 04:17:10;;;;;;;1.92;1.83;;;19.00;21.00;;;;;;5113886;28;20212;-58
2021/03/11 04:19:37;;;;;;;1.73;1.63;;;19.00;21.00;;;;;;5113623;28;20199;-58
2021/03/11 04:22:04;;;;;;;1.77;1.60;;;19.00;21.00;;;;;;5113923;28;20186;-58
2021/03/11 04:24:31;;;;;;;1.42;1.33;;;19.00;21.00;;;;;;5113278;28;20141;-57
2021/03/11 04:27:00;;;;;;;1.52;1.42;;;19.00;21.00;;;;;;5113964;28;20744;-57
2021/03/11 04:29:27;;;;;;;1.70;1.60;;;19.00;21.00;;;;;;5113585;28;20169;-57
2021/03/11 04:31:53;;;;;;;1.90;1.70;;;19.00;21.00;;;;;;5116876;28;20164;-58
2021/03/11 04:34:22;;;;;;;1.73;1.23;;;19.00;21.00;;;;;;5117786;28;20194;-57
2021/03/11 04:36:48;;;;;;;1.13;1.02;;;19.00;21.00;;;;;;5117961;28;20175;-58
2021/03/11 04:39:15;;;;;;;2.15;1.73;;;19.00;21.00;;;;;;5117293;28;20689;-57
2021/03/11 04:41:41;;;;;;;1.80;1.55;;;19.00;21.00;;;;;;5118008;28;20264;-58
2021/03/11 04:44:10;;;;;;;1.60;1.50;;;19.00;21.00;;;;;;5117847;28;20623;-57
2021/03/11 04:46:39;;;;;;;1.50;1.40;;;19.00;21.00;;;;;;5117623;28;20382;-58
2021/03/11 04:49:05;;;;;;;1.50;1.30;;;19.00;21.00;;;;;;5117708;28;20181;-58
2021/03/11 04:51:32;;;;;;;1.58;1.48;;;19.00;21.00;;;;;;5117578;28;20194;-57
2021/03/11 04:53:59;;;;;;;1.77;1.60;;;19.00;20.90;;;;;;5116871;28;20604;-58
2021/03/11 04:56:26;;;;;;;1.40;1.30;;;19.00;20.90;;;;;;5117352;28;20192;-57
2021/03/11 04:58:54;;;;;;;1.50;1.40;;;19.00;20.90;;;;;;5117436;28;20187;-57
2021/03/11 05:01:27;;;;;;;1.40;1.30;;;19.00;20.90;;;;;;5117497;28;20161;-58
2021/03/11 05:03:53;;;;;;;1.40;1.30;;;19.00;20.90;;;;;;5117230;28;20619;-58
2021/03/11 05:06:19;;;;;;;1.65;1.55;;;19.00;20.90;;;;;;5099389;28;20184;-58
2021/03/11 05:08:47;;;;;;;1.60;1.40;;;19.00;20.90;;;;;;5117129;28;20157;-58
2021/03/11 05:11:15;;;;;;;1.40;1.30;;;19.00;20.90;;;;;;5117285;28;20406;-57
2021/03/11 05:13:41;;;;;;;1.70;1.60;;;19.00;20.90;;;;;;5117025;28;20161;-57
2021/03/11 05:16:07;;;;;;;1.35;1.25;;;19.00;20.90;;;;;;5117304;28;20298;-58
2021/03/11 05:18:33;;;;;;;1.80;1.70;;;19.00;20.90;;;;;;5116819;28;20311;-58
2021/03/11 05:20:59;;;;;;;1.87;1.77;;;19.00;20.90;;;;;;5117100;28;20226;-57
2021/03/11 05:23:25;;;;;;;1.13;1.02;;;19.00;20.90;;;;;;5116459;28;20395;-57
2021/03/11 05:25:52;;;;;;;1.50;1.30;;;19.00;21.50;;;;;;5116764;28;20500;-57
2021/03/11 05:28:18;;;;;;;1.85;1.60;;;19.00;20.90;;;;;;5116774;28;20399;-57
2021/03/11 05:30:44;;;;;;;1.50;1.40;;;19.00;20.90;;;;;;5116950;28;20160;-58
2021/03/11 05:33:09;;;;;;;1.33;1.23;;;19.00;20.90;;;;;;5116632;28;20886;-58
2021/03/11 05:35:38;;;;;;;1.33;1.23;;;19.00;20.90;;;;;;5116579;28;20173;-58
2021/03/11 05:38:05;;;;;;;1.67;1.50;;;19.00;20.90;;;;;;5116159;28;20222;-57
2021/03/11 05:40:30;;;;;;;1.63;1.52;;;19.00;21.40;;;;;;5116313;28;20195;-58
2021/03/11 05:43:01;;;;;;;1.40;1.30;;;19.00;20.90;;;;;;5116209;28;20604;-57
2021/03/11 05:45:30;;;;;;;1.20;1.10;;;19.00;20.90;;;;;;5116703;28;20192;-57
2021/03/11 05:47:56;;;;;;;1.58;1.48;;;19.00;20.90;;;;;;5116327;28;20675;-58
2021/03/11 05:50:22;;;;;;;1.50;1.35;;;19.00;20.90;;;;;;5116552;28;20240;-57
2021/03/11 05:52:48;;;;;;;1.50;1.40;;;19.00;20.80;;;;;;5098399;28;20153;-57
2021/03/11 05:55:14;;;;;;;1.60;1.50;;;19.00;20.80;;;;;;5097189;28;20176;-57
2021/03/11 05:57:44;;;;;;;1.20;1.10;;;19.00;20.80;;;;;;5116208;28;20811;-57
2021/03/11 06:00:15;;;;;;;2.22;2.08;;;19.00;20.80;;;;;;5116193;28;20196;-58
2021/03/11 06:02:45;;;;;;;1.20;1.10;;;19.00;20.80;;;;;;5116098;28;20616;-58
2021/03/11 06:05:17;;;;;;;1.30;1.20;;;19.00;20.80;;;;;;5116158;28;20249;-57
2021/03/11 06:07:47;;;;;;;1.42;1.33;;;19.00;20.90;;;;;;5116027;28;20153;-57
2021/03/11 06:10:16;;;;;;;1.40;1.30;;;19.00;20.80;;;;;;5115024;28;20157;-57
2021/03/11 06:12:43;;;;;;;1.50;1.40;;;19.00;20.80;;;;;;5116337;28;20236;-59
2021/03/11 06:15:14;;;;;;;1.50;1.40;;;19.00;20.80;;;;;;5115469;28;20165;-58
2021/03/11 06:17:42;;;;;;;1.70;1.50;;;19.00;20.80;;;;;;5115734;28;20239;-58
2021/03/11 06:20:08;;;;;;;1.80;1.70;;;19.00;20.80;;;;;;5115661;28;20187;-58
2021/03/11 06:22:35;;;;;;;1.60;1.50;;;19.00;20.80;;;;;;5115735;28;20157;-58
2021/03/11 06:25:01;;;;;;;1.40;1.30;;;19.00;21.30;;;;;;5115269;28;20634;-57
2021/03/11 06:27:27;;;;;;;1.30;1.20;;;19.00;20.80;;;;;;5115460;28;20517;-57
2021/03/11 06:29:52;;;;;;;1.80;1.70;;;19.00;20.80;;;;;;5115525;28;20657;-58
2021/03/11 06:32:18;;;;;;;1.50;1.40;;;19.00;20.80;;;;;;5115721;28;20401;-58
2021/03/11 06:34:44;;;;;;;1.30;1.20;;;19.00;20.80;;;;;;5115104;28;20192;-57
2021/03/11 06:37:14;;;;;;;1.45;1.35;;;19.00;20.80;;;;;;5115663;28;20256;-57
2021/03/11 06:39:41;;;;;;;1.48;1.38;;;19.00;20.80;;;;;;5114652;28;20650;-57
2021/03/11 06:42:08;;;;;;;1.50;1.40;;;19.00;20.80;;;;;;5115253;28;20529;-57
2021/03/11 06:44:44;;;;;;;1.42;1.33;;;19.00;20.90;;;;;;5115183;28;20146;-57
2021/03/11 06:47:15;;;;;;;1.35;1.25;;;19.00;20.80;;;;;;5115111;28;20225;-58
2021/03/11 06:50:01;;;;;;;1.92;1.70;;;19.00;20.80;;;;;;5115205;28;20158;-58
2021/03/11 06:52:27;;;;;;;1.40;1.30;;;19.00;20.80;;;;;;5114960;28;20256;-58
2021/03/11 06:55:03;;;;;;;1.60;1.25;;;19.00;20.80;;;;;;5078242;28;20173;-58
2021/03/11 06:57:32;;;;;;;1.33;1.23;;;19.00;20.70;;;;;;5114750;28;20481;-58
2021/03/11 06:59:59;;;;;;;2.25;1.33;;;19.00;20.70;;;;;;5114850;28;20594;-58
2021/03/11 07:02:28;;;;;;;1.80;1.70;;;19.00;20.70;;;;;;5115209;28;20161;-58
2021/03/11 07:04:56;;;;;;;1.15;1.08;;;19.00;20.70;;;;;;5114780;28;20149;-57
2021/03/11 07:07:24;;;;;;;1.50;1.40;;;19.00;20.70;;;;;;5114660;28;20152;-57
2021/03/11 07:09:53;;;;;;;0.95;0.95;;;19.00;20.70;;;;;;5114454;28;20176;-58
2021/03/11 07:12:19;;;;;;;1.55;1.45;;;19.00;20.70;;;;;;5114535;28;20153;-57
2021/03/11 07:14:50;;;;;;;1.30;1.20;;;19.00;20.70;;;;;;5113206;28;20161;-58
2021/03/11 07:17:24;;;;;;;3.15;2.10;;;19.00;20.70;;;;;;5095720;27;20228;-55
2021/03/11 07:20:10;;;;;;;4.68;3.10;;;19.00;20.10;;;;;;5094492;28;20295;-55
2021/03/11 07:22:37;;;;;;;2.67;2.00;;;18.90;19.20;;;;;;5099810;28;20259;-55
2021/03/11 07:25:04;;;;;;;5.68;2.38;;;18.80;19.40;;;;;;5095051;28;20632;-56
2021/03/11 07:27:40;;;;;;;5.43;2.38;;;18.70;19.10;;;;;;5124166;27;20181;-56
2021/03/11 07:30:08;;;;;;;3.85;2.30;;;18.60;18.50;;;;;;5110410;28;20185;-56
2021/03/11 07:32:35;;;;;;;5.82;2.10;;;18.50;18.20;;;;;;5114235;28;20165;-56
2021/03/11 07:35:03;;;;;;;1.83;1.73;;;18.40;18.40;;;;;;5112558;28;20165;-56
2021/03/11 07:37:30;;;;;;;3.10;2.00;;;18.30;18.40;;;;;;5094197;28;20529;-56
2021/03/11 07:39:59;;;;;;;2.30;1.65;;;18.30;18.60;;;;;;5099634;28;20231;-55
2021/03/11 07:42:25;;;;;;;2.53;1.80;;;18.20;18.90;;;;;;5112085;28;20262;-57
2021/03/11 07:44:51;;;;;;;3.47;2.10;;;18.20;18.80;;;;;;5111110;28;20157;-55
2021/03/11 07:47:20;;;;;;;2.30;1.80;;;18.10;18.90;;;;;;5102003;28;20690;-54
2021/03/11 07:49:46;;;;;;;2.60;2.00;;;18.10;18.90;;;;;;5092360;28;20404;-54
2021/03/11 07:52:15;;;;;;;3.85;2.33;;;18.10;18.90;;;;;;5091457;28;20260;-55
2021/03/11 07:54:41;;;;;;;4.60;2.38;;;18.10;18.90;;;;;;5112820;28;20160;-54
2021/03/11 07:57:07;;;;;;;2.33;1.65;;;18.10;18.90;;;;;;5102622;28;20189;-57
2021/03/11 07:59:34;;;;;;;5.13;1.77;;;18.10;18.90;;;;;;5098521;27;20208;-57
2021/03/11 08:02:01;;;;;;;1.60;1.40;;;18.10;18.90;;;;;;5115581;27;20617;-53
2021/03/11 08:04:31;;;;;;;2.53;2.03;;;18.10;19.70;;;;;;5111592;28;20172;-53
2021/03/11 08:07:20;;;;;;;2.55;1.55;;;18.20;20.10;;;;;;5112725;28;20255;-53
2021/03/11 08:09:51;;;;;;;1.95;1.75;;;18.30;20.20;;;;;;5106325;28;20173;-54
2021/03/11 08:12:39;;;;;;;1.50;1.40;;;18.30;20.80;;;;;;5093074;28;20214;-53
2021/03/11 08:15:19;;;;;;;4.13;2.05;;;18.40;20.40;;;;;;5111841;28;20161;-54
2021/03/11 08:17:46;;;;;;;3.05;1.40;;;18.50;20.50;;;;;;5093214;28;20217;-54
2021/03/11 08:20:24;;;;;;;2.25;2.05;;;18.60;20.60;;;;;;5091731;28;20521;-54
2021/03/11 08:25:33;;;;;;;3.47;1.40;;;18.70;20.50;;;;;;5097490;28;20196;-55
2021/03/11 08:28:00;;;;;;;2.20;1.55;;;18.80;20.30;;;;;;5123614;28;20618;-55
2021/03/11 08:30:40;;;;;;;2.03;1.73;;;18.80;20.10;;;;;;5111364;28;20207;-53
2021/03/11 08:33:12;;;;;;;1.42;1.33;;;18.80;20.70;;;;;;5112439;28;20661;-52
2021/03/11 08:35:44;;;;;;;2.05;1.85;;;18.80;20.20;;;;;;5111268;28;20214;-55
2021/03/11 08:38:26;;;;;;;4.53;1.77;;;18.90;20.40;;;;;;5111289;28;20165;-53
2021/03/11 08:41:03;;;;;;;1.77;1.40;;;18.90;20.20;;;;;;5112909;28;20290;-53
2021/03/11 08:43:38;;;;;;;2.95;1.50;;;19.00;20.30;;;;;;5113188;28;20169;-53
2021/03/11 08:46:08;;;;;;;1.50;1.35;;;19.00;20.40;;;;;;5112600;28;20202;-54
2021/03/11 08:48:41;;;;;;;1.73;1.63;;;19.00;20.40;;;;;;5091196;28;20289;-55
2021/03/11 08:51:30;;;;;;;1.48;1.35;;;19.10;20.50;;;;;;5113483;28;20177;-54
2021/03/11 08:54:16;;;;;;;3.97;2.20;;;19.10;20.60;;;;;;5098999;28;20272;-54
2021/03/11 08:56:45;;;;;;;2.22;1.70;;;19.10;20.60;;;;;;5094778;28;20214;-54
2021/03/11 08:59:15;;;;;;;1.73;1.63;;;19.10;20.60;;;;;;5109534;28;20607;-53
2021/03/11 09:01:47;;;;;;;2.70;1.60;;;19.20;20.70;;;;;;5111812;28;20166;-53
2021/03/11 09:04:24;;;;;;;2.80;1.65;;;19.20;20.70;;;;;;5112565;28;20161;-54
2021/03/11 09:06:58;;;;;;;1.40;1.30;;;19.30;20.80;;;;;;5112753;28;20165;-54
2021/03/11 09:09:45;;;;;;;2.05;1.50;;;19.30;20.60;;;;;;5099949;28;20258;-54
2021/03/11 09:12:20;;;;;;;1.58;1.40;;;19.30;20.30;;;;;;5108590;28;20173;-53
2021/03/11 09:14:48;;;;;;;2.50;2.15;;;19.30;20.30;;;;;;5098868;28;20189;-53
2021/03/11 09:17:19;;;;;;;5.82;1.55;;;19.40;20.20;;;;;;5128061;27;20224;-54
2021/03/11 09:20:00;;;;;;;1.75;1.60;;;19.40;20.00;;;;;;5105555;27;20524;-54
2021/03/11 09:22:31;;;;;;;1.98;1.50;;;19.40;20.10;;;;;;5114649;28;20185;-54
2021/03/11 09:25:05;;;;;;;1.40;1.30;;;19.50;20.40;;;;;;5110274;28;20166;-55
2021/03/11 09:27:32;;;;;;;3.92;1.55;;;19.50;20.40;;;;;;5116416;27;20184;-54
2021/03/11 09:30:00;;;;;;;2.90;1.83;;;19.50;20.50;;;;;;5112713;28;20281;-55
2021/03/11 09:32:35;;;;;;;1.95;1.30;;;19.50;20.60;;;;;;5115299;28;20153;-55
2021/03/11 09:35:08;;;;;;;2.50;1.92;;;19.60;20.60;;;;;;5116252;28;20230;-55
2021/03/11 09:37:55;;;;;;;3.95;1.80;;;19.60;20.70;;;;;;5106924;27;20275;-55
2021/03/11 09:40:24;;;;;;;3.75;1.30;;;19.60;20.60;;;;;;5104702;28;20648;-55
2021/03/11 09:43:17;;;;;;;2.22;1.63;;;19.60;20.60;;;;;;5113965;28;20173;-55
2021/03/11 09:45:49;;;;;;;1.42;1.17;;;19.60;20.60;;;;;;5115475;28;20181;-55
2021/03/11 09:48:19;;;;;;;2.08;1.70;;;19.60;20.60;;;;;;5114260;28;21222;-55
2021/03/11 09:51:14;;;;;;;1.75;1.65;;;19.60;20.60;;;;;;5106892;28;20231;-54
2021/03/11 09:53:50;;;;;;;2.38;1.50;;;19.60;20.60;;;;;;5121680;27;20184;-54
2021/03/11 09:56:37;;;;;;;1.40;1.30;;;19.70;20.70;;;;;;5125773;27;20167;-55
2021/03/11 09:59:09;;;;;;;2.60;1.55;;;19.70;20.70;;;;;;5113119;28;20189;-55
2021/03/11 10:01:39;;;;;;;1.40;1.30;;;19.70;20.80;;;;;;5100270;28;20180;-57
2021/03/11 10:04:14;;;;;;;2.15;1.67;;;19.70;20.80;;;;;;5113599;28;20161;-54
2021/03/11 10:06:55;;;;;;;2.50;1.45;;;20.80;21.50;;;;;;5115521;28;20163;-54
2021/03/11 10:09:22;;;;;;;1.85;1.30;;;19.70;20.90;;;;;;5114120;28;20165;-53
2021/03/11 10:11:54;;;;;;;3.75;2.10;;;19.70;21.40;;;;;;5115113;28;20668;-54
2021/03/11 10:14:22;;;;;;;2.40;1.50;;;19.70;20.90;;;;;;5113898;28;20188;-54
2021/03/11 10:16:50;;;;;;;2.50;1.67;;;19.70;20.90;;;;;;5114826;28;20209;-54
2021/03/11 10:19:17;;;;;;;4.25;1.70;;;19.70;20.90;;;;;;5113540;28;20203;-53
2021/03/11 10:21:55;;;;;;;1.58;1.42;;;19.70;21.00;;;;;;5115028;28;20137;-55
2021/03/11 10:24:41;;;;;;;1.98;1.55;;;19.80;21.00;;;;;;5114145;28;20153;-56
2021/03/11 10:27:23;;;;;;;1.60;1.20;;;19.80;20.90;;;;;;5103392;28;20165;-54
2021/03/11 10:30:08;;;;;;;1.20;1.13;;;19.90;21.00;;;;;;5111288;28;20284;-54
2021/03/11 10:32:35;;;;;;;3.30;1.45;;;19.00;20.20;;;;;;5113885;28;20162;-54
2021/03/11 10:35:02;;;;;;;1.35;1.25;;;19.90;20.80;;;;;;5114633;28;20700;-53
2021/03/11 10:37:30;;;;;;;2.33;1.58;;;19.90;20.70;;;;;;5112761;28;20165;-53
2021/03/11 10:40:01;;;;;;;1.80;1.23;;;19.90;20.70;;;;;;5112267;28;20196;-54
2021/03/11 10:42:40;;;;;;;1.60;1.40;;;19.90;20.80;;;;;;5094246;28;20170;-55
2021/03/11 10:45:07;;;;;;;2.75;1.40;;;20.00;20.90;;;;;;5095074;28;20177;-55
2021/03/11 10:47:33;;;;;;;3.00;1.30;;;20.00;20.90;;;;;;5094755;28;20232;-53
2021/03/11 10:50:01;;;;;;;2.57;1.77;;;20.00;20.90;;;;;;5112984;28;20161;-54
2021/03/11 10:52:26;;;;;;;2.03;1.60;;;20.00;20.80;;;;;;5104413;28;20214;-53
2021/03/11 10:54:52;;;;;;;3.70;1.00;;;20.00;20.80;;;;;;5113974;28;20161;-53
2021/03/11 10:57:19;;;;;;;2.97;1.73;;;20.00;20.80;;;;;;5114236;28;20664;-53
2021/03/11 10:59:52;;;;;;;2.20;2.00;;;20.00;20.80;;;;;;5109516;28;20181;-53
2021/03/11 11:02:19;;;;;;;1.70;1.13;;;20.00;20.90;;;;;;5112618;28;20161;-53
2021/03/11 11:04:45;;;;;;;1.80;1.70;;;20.00;20.90;;;;;;5113695;28;20511;-53
2021/03/11 11:07:11;;;;;;;4.43;1.67;;;20.00;21.00;;;;;;5113052;28;20631;-53
2021/03/11 11:09:43;;;;;;;2.17;1.60;;;20.10;21.00;;;;;;5108702;28;20647;-55
2021/03/11 11:12:18;;;;;;;1.45;1.10;;;20.00;21.00;;;;;;5114001;28;20378;-54
2021/03/11 11:14:48;;;;;;;4.22;1.55;;;20.00;21.00;;;;;;5113652;28;20179;-55
2021/03/11 11:17:15;;;;;;;2.40;1.80;;;20.00;20.90;;;;;;5114082;28;20273;-56
2021/03/11 11:19:42;;;;;;;2.70;1.60;;;20.10;21.00;;;;;;5107392;28;20250;-53
2021/03/11 11:22:08;;;;;;;8.70;2.25;;;20.00;21.00;;;;;;5112057;28;20184;-54
2021/03/11 11:24:36;;;;;;;1.90;1.60;;;20.10;21.10;;;;;;5112572;28;20158;-55
2021/03/11 11:27:02;;;;;;;2.00;1.35;;;20.10;21.10;;;;;;5111117;28;20169;-54
2021/03/11 11:29:27;;;;;;;2.90;1.70;;;20.10;21.10;;;;;;5112182;28;20183;-54
2021/03/11 11:31:54;;;;;;;1.93;1.33;;;20.10;21.10;;;;;;5111745;28;20153;-54
2021/03/11 11:34:19;;;;;;;2.72;1.98;;;20.10;21.10;;;;;;5113970;28;20275;-56
2021/03/11 11:36:48;;;;;;;3.30;1.40;;;20.10;21.20;;;;;;5113509;28;20204;-55
2021/03/11 11:39:15;;;;;;;2.15;1.30;;;20.10;21.30;;;;;;5103004;28;20474;-54
2021/03/11 11:41:42;;;;;;;4.80;1.80;;;20.10;21.30;;;;;;5113266;28;20194;-55
2021/03/11 11:44:09;;;;;;;3.00;1.52;;;20.10;21.30;;;;;;5111890;28;20205;-54
2021/03/11 11:46:35;;;;;;;11.15;1.60;;;20.10;21.30;;;;;;5111294;28;20704;-54
2021/03/11 11:49:02;;;;;;;3.57;1.40;;;20.10;21.50;;;;;;5112336;28;20244;-54
2021/03/11 11:51:28;;;;;;;3.88;1.20;;;20.10;21.30;;;;;;5090996;28;20275;-54
2021/03/11 11:53:54;;;;;;;1.80;1.50;;;20.10;21.20;;;;;;5094325;28;20587;-55
2021/03/11 11:56:20;;;;;;;4.95;1.50;;;20.10;21.20;;;;;;5107957;28;20196;-54
2021/03/11 11:58:46;;;;;;;1.60;1.40;;;20.10;21.30;;;;;;5109048;28;20671;-53
2021/03/11 12:01:16;;;;;;;4.25;1.75;;;20.10;21.80;;;;;;5108694;28;20181;-52
2021/03/11 12:03:42;;;;;;;2.58;1.40;;;20.10;22.00;;;;;;5094619;28;20215;-53
2021/03/11 12:06:08;;;;;;;5.13;2.25;;;20.10;22.00;;;;;;5103205;28;20169;-52
2021/03/11 12:08:34;;;;;;;2.30;1.63;;;20.10;22.20;;;;;;5110188;28;20199;-56
2021/03/11 12:11:03;;;;;;;1.52;1.42;;;20.10;22.30;;;;;;5113529;28;20401;-53
2021/03/11 12:13:29;;;;;;;1.85;1.42;;;20.10;22.40;;;;;;5113154;28;20184;-56
2021/03/11 12:15:55;;;;;;;1.55;1.35;;;20.10;22.30;;;;;;5111255;28;20280;-55
2021/03/11 12:18:21;;;;;;;3.63;1.70;;;20.10;22.20;;;;;;5111879;28;20354;-53
2021/03/11 12:20:46;;;;;;;1.50;1.40;;;20.10;22.10;;;;;;5104646;28;20200;-54
2021/03/11 12:23:14;;;;;;;2.83;1.33;;;20.10;22.00;;;;;;5101540;28;20201;-54
2021/03/11 12:25:40;;;;;;;5.57;2.00;;;20.10;22.10;;;;;;5095164;28;20161;-54
2021/03/11 12:28:06;;;;;;;1.58;1.48;;;20.20;22.20;;;;;;5110197;28;20172;-55
2021/03/11 12:30:32;;;;;;;3.50;1.50;;;20.20;22.20;;;;;;5112717;28;20165;-55
2021/03/11 12:32:58;;;;;;;2.60;1.33;;;20.20;22.20;;;;;;5113188;28;20210;-54
2021/03/11 12:35:33;;;;;;;2.07;1.27;;;20.20;22.20;;;;;;5094376;28;20201;-54
2021/03/11 12:37:59;;;;;;;3.10;1.70;;;20.20;22.80;;;;;;5109351;28;20411;-54
2021/03/11 12:40:25;;;;;;;1.87;1.43;;;20.20;22.20;;;;;;5113658;28;20272;-53
2021/03/11 12:42:51;;;;;;;2.70;1.80;;;20.20;22.20;;;;;;5113056;28;20173;-54
2021/03/11 12:45:19;;;;;;;2.60;1.50;;;20.30;22.20;;;;;;5113043;28;20161;-54
2021/03/11 12:47:45;;;;;;;2.65;1.90;;;20.30;22.20;;;;;;5110145;28;20638;-54
2021/03/11 12:50:16;;;;;;;2.58;1.50;;;20.30;22.10;;;;;;5110338;28;20185;-55
2021/03/11 12:52:42;;;;;;;2.88;1.25;;;20.30;22.10;;;;;;5115471;28;20175;-55
2021/03/11 12:55:08;;;;;;;2.30;1.47;;;20.30;22.10;;;;;;5116298;28;20252;-54
2021/03/11 12:57:34;;;;;;;1.50;1.27;;;20.40;22.20;;;;;;5116075;28;20164;-54
2021/03/11 13:00:00;;;;;;;2.27;1.27;;;20.30;22.10;;;;;;5113706;28;20545;-52